createdAt,value
2022-11-04T00:00:09.848Z,9.02
2022-11-04T00:02:36.280Z,10.43
2022-11-04T00:05:03.005Z,15.68
2022-11-04T00:07:47.806Z,8.68
2022-11-04T00:10:14.166Z,7.38
2022-11-04T00:12:40.495Z,11.45
2022-11-04T00:15:25.347Z,8.88
2022-11-04T00:17:51.672Z,9.02
2022-11-04T00:20:36.420Z,7.97
2022-11-04T00:23:21.352Z,8.70
2022-11-04T00:26:06.438Z,10.40
2022-11-04T00:28:44.735Z,9.30
2022-11-04T00:31:29.926Z,13.38
2022-11-04T00:33:57.588Z,7.57
2022-11-04T00:36:24.520Z,7.65
2022-11-04T00:38:50.897Z,9.98
2022-11-04T00:41:26.985Z,8.73
2022-11-04T00:43:58.095Z,7.65
2022-11-04T00:46:24.486Z,13.07
2022-11-04T00:48:51.086Z,12.88
2022-11-04T00:51:17.528Z,10.70
2022-11-04T00:53:43.943Z,10.50
2022-11-04T00:56:10.272Z,7.78
2022-11-04T00:58:36.988Z,7.65
2022-11-04T01:01:10.134Z,9.77
2022-11-04T01:03:36.580Z,11.15
2022-11-04T01:06:03.141Z,10.60
2022-11-04T01:08:29.652Z,11.32
2022-11-04T01:11:00.769Z,9.15
2022-11-04T01:13:27.084Z,9.40
2022-11-04T01:15:53.418Z,9.82
2022-11-04T01:18:19.814Z,10.65
2022-11-04T01:20:46.158Z,8.13
2022-11-04T01:23:15.347Z,12.27
2022-11-04T01:25:42.056Z,11.52
2022-11-04T01:28:08.598Z,9.18
2022-11-04T01:30:37.570Z,9.32
2022-11-04T01:33:04.006Z,7.35
2022-11-04T01:35:31.130Z,11.13
2022-11-04T01:38:00.320Z,8.98
2022-11-04T01:40:26.723Z,14.60
2022-11-04T01:42:53.034Z,11.55
2022-11-04T01:45:20.804Z,11.55
2022-11-04T01:48:01.472Z,12.32
2022-11-04T01:50:29.160Z,10.40
2022-11-04T01:53:10.450Z,9.55
2022-11-04T01:55:41.503Z,11.27
2022-11-04T01:58:10.313Z,13.15
2022-11-04T02:00:38.560Z,12.57
2022-11-04T02:03:10.206Z,11.70
2022-11-04T02:05:36.981Z,11.48
2022-11-04T02:08:04.796Z,11.23
2022-11-04T02:10:31.515Z,13.88
2022-11-04T02:12:59.376Z,13.40
2022-11-04T02:15:46.152Z,15.43
2022-11-04T02:18:29.209Z,13.07
2022-11-04T02:20:58.596Z,11.15
2022-11-04T02:23:30.281Z,9.38
2022-11-04T02:25:56.741Z,12.35
2022-11-04T02:28:42.138Z,12.23
2022-11-04T02:31:19.027Z,13.85
2022-11-04T02:33:56.927Z,13.27
2022-11-04T02:36:31.582Z,11.55
2022-11-04T02:39:02.443Z,11.10
2022-11-04T02:41:34.782Z,16.25
2022-11-04T02:44:19.326Z,11.70
2022-11-04T02:46:48.765Z,16.75
2022-11-04T02:49:20.299Z,15.60
2022-11-04T02:51:54.878Z,16.17
2022-11-04T02:54:36.381Z,12.07
2022-11-04T02:57:05.009Z,13.73
2022-11-04T02:59:39.800Z,10.17
2022-11-04T03:02:08.098Z,10.23
2022-11-04T03:04:37.464Z,12.50
2022-11-04T03:07:06.207Z,19.92
2022-11-04T03:09:34.074Z,10.07
2022-11-04T03:12:04.443Z,10.38
2022-11-04T03:14:34.124Z,12.70
2022-11-04T03:17:03.938Z,10.80
2022-11-04T03:19:39.680Z,12.23
2022-11-04T03:22:14.441Z,10.00
2022-11-04T03:24:41.835Z,12.05
2022-11-04T03:27:15.904Z,11.27
2022-11-04T03:30:00.746Z,12.50
2022-11-04T03:32:42.452Z,12.30
2022-11-04T03:35:09.430Z,10.75
2022-11-04T03:37:35.811Z,10.43
2022-11-04T03:40:02.566Z,13.50
2022-11-04T03:42:30.482Z,17.13
2022-11-04T03:44:57.295Z,15.52
2022-11-04T03:47:25.282Z,11.85
2022-11-04T03:49:55.009Z,15.10
2022-11-04T03:52:21.468Z,11.13
2022-11-04T03:54:47.883Z,13.50
2022-11-04T03:57:26.474Z,12.38
2022-11-04T03:59:52.876Z,11.33
2022-11-04T04:02:21.349Z,12.52
2022-11-04T04:05:08.079Z,13.03
2022-11-04T04:07:37.393Z,9.85
2022-11-04T04:10:33.545Z,14.18
2022-11-04T04:13:02.241Z,14.30
2022-11-04T04:15:38.574Z,17.00
2022-11-04T04:18:07.895Z,13.10
2022-11-04T04:20:38.861Z,11.95
2022-11-04T04:23:29.626Z,13.45
2022-11-04T04:26:16.451Z,14.70
2022-11-04T04:28:43.494Z,14.00
2022-11-04T04:31:11.085Z,9.95
2022-11-04T04:33:38.299Z,12.93
2022-11-04T04:36:06.099Z,15.20
2022-11-04T04:38:51.546Z,13.23
2022-11-04T04:41:46.002Z,18.95
2022-11-04T04:44:34.635Z,11.98
2022-11-04T04:47:02.707Z,11.57
2022-11-04T04:49:35.157Z,11.70
2022-11-04T04:52:06.565Z,14.45
2022-11-04T04:54:32.956Z,18.02
2022-11-04T04:56:59.311Z,11.50
2022-11-04T04:59:25.693Z,12.45
2022-11-04T05:01:52.113Z,14.73
2022-11-04T05:04:18.588Z,14.85
2022-11-04T05:06:44.930Z,18.13
2022-11-04T05:09:11.246Z,17.23
2022-11-04T05:11:37.604Z,13.93
2022-11-04T05:14:03.927Z,18.83
2022-11-04T05:16:30.256Z,13.02
2022-11-04T05:18:56.714Z,14.20
2022-11-04T05:21:23.066Z,14.55
2022-11-04T05:23:49.399Z,13.25
2022-11-04T05:26:16.402Z,15.00
2022-11-04T05:28:42.805Z,15.30
2022-11-04T05:31:09.161Z,15.50
2022-11-04T05:33:35.550Z,17.05
2022-11-04T05:36:05.853Z,16.30
2022-11-04T05:38:32.211Z,16.42
2022-11-04T05:40:58.875Z,14.23
2022-11-04T05:43:25.209Z,21.90
2022-11-04T05:45:51.581Z,17.38
2022-11-04T05:48:17.958Z,24.50
2022-11-04T05:50:44.637Z,17.98
2022-11-04T05:53:13.615Z,15.10
2022-11-04T05:55:40.052Z,22.08
2022-11-04T05:58:06.762Z,19.52
2022-11-04T06:00:33.316Z,22.25
2022-11-04T06:02:59.758Z,19.20
2022-11-04T06:05:26.837Z,19.98
2022-11-04T06:07:53.247Z,19.25
2022-11-04T06:10:19.647Z,23.80
2022-11-04T06:12:46.016Z,16.92
2022-11-04T06:15:15.325Z,19.40
2022-11-04T06:17:41.726Z,16.83
2022-11-04T06:20:08.359Z,19.30
2022-11-04T06:22:34.690Z,21.05
2022-11-04T06:25:01.064Z,18.52
2022-11-04T06:27:27.394Z,17.05
2022-11-04T06:29:53.806Z,19.00
2022-11-04T06:32:20.400Z,18.80
2022-11-04T06:34:46.730Z,17.65
2022-11-04T06:37:13.071Z,23.77
2022-11-04T06:39:39.485Z,21.13
2022-11-04T06:42:05.993Z,20.98
2022-11-04T06:44:34.394Z,17.55
2022-11-04T06:47:00.851Z,17.25
2022-11-04T06:49:27.303Z,20.00
2022-11-04T06:51:53.733Z,19.92
2022-11-04T06:54:20.145Z,25.42
2022-11-04T06:56:47.268Z,17.45
2022-11-04T06:59:18.689Z,18.23
2022-11-04T07:01:45.548Z,16.70
2022-11-04T07:04:12.129Z,18.67
2022-11-04T07:06:43.962Z,21.42
2022-11-04T07:09:12.077Z,19.27
2022-11-04T07:11:38.540Z,18.98
2022-11-04T07:14:05.025Z,19.42
2022-11-04T07:16:31.411Z,18.13
2022-11-04T07:18:57.794Z,20.33
2022-11-04T07:21:24.178Z,21.27
2022-11-04T07:23:50.963Z,18.35
2022-11-04T07:26:17.387Z,21.90
2022-11-04T07:28:43.773Z,21.90
2022-11-04T07:31:11.082Z,20.20
2022-11-04T07:33:37.515Z,17.27
2022-11-04T07:36:05.063Z,22.02
2022-11-04T07:38:31.511Z,18.00
2022-11-04T07:40:58.350Z,22.20
2022-11-04T07:43:24.751Z,23.13
2022-11-04T07:46:00.991Z,17.60
2022-11-04T07:48:27.576Z,18.02
2022-11-04T07:51:00.463Z,20.25
2022-11-04T07:53:27.902Z,20.35
2022-11-04T07:55:54.247Z,23.70
2022-11-04T07:58:21.037Z,19.33
2022-11-04T08:00:47.464Z,18.75
2022-11-04T08:03:14.103Z,20.13
2022-11-04T08:05:43.016Z,25.23
2022-11-04T08:08:09.375Z,18.33
2022-11-04T08:10:35.862Z,25.17
2022-11-04T08:13:02.236Z,18.48
2022-11-04T08:15:29.559Z,16.25
2022-11-04T08:17:55.944Z,17.67
2022-11-04T08:20:22.295Z,18.13
2022-11-04T08:22:48.677Z,20.70
2022-11-04T08:25:15.048Z,19.08
2022-11-04T08:27:41.411Z,16.95
2022-11-04T08:30:08.308Z,18.77
2022-11-04T08:32:37.650Z,22.80
2022-11-04T08:35:04.182Z,19.67
2022-11-04T08:37:30.573Z,19.52
2022-11-04T08:39:56.899Z,20.52
2022-11-04T08:42:26.253Z,20.92
2022-11-04T08:47:18.941Z,17.95
2022-11-04T08:49:45.253Z,15.88
2022-11-04T08:52:11.659Z,19.20
2022-11-04T08:54:37.996Z,20.15
2022-11-04T08:57:04.355Z,19.92
2022-11-04T08:59:30.821Z,23.50
2022-11-04T09:01:57.371Z,19.08
2022-11-04T09:04:24.034Z,21.60
2022-11-04T09:06:52.151Z,19.17
2022-11-04T09:09:18.645Z,24.45
2022-11-04T09:11:45.334Z,17.45
2022-11-04T09:14:12.333Z,22.17
2022-11-04T09:16:39.241Z,17.20
2022-11-04T09:19:05.823Z,24.83
2022-11-04T09:21:32.191Z,18.70
2022-11-04T09:23:58.537Z,21.30
2022-11-04T09:26:25.639Z,18.48
2022-11-04T09:28:55.840Z,15.07
2022-11-04T09:31:22.786Z,17.00
2022-11-04T09:33:50.363Z,20.77
2022-11-04T09:36:16.816Z,20.10
2022-11-04T09:38:46.221Z,21.80
2022-11-04T09:43:39.950Z,21.05
2022-11-04T09:46:10.159Z,19.25
2022-11-04T09:48:39.571Z,21.05
2022-11-04T09:53:35.569Z,17.08
2022-11-04T09:56:04.746Z,21.35
2022-11-04T09:58:33.876Z,20.75
2022-11-04T10:01:12.532Z,18.75
2022-11-04T10:03:46.642Z,21.63
2022-11-04T10:06:25.836Z,18.15
2022-11-04T10:09:18.161Z,17.85
2022-11-04T10:12:02.373Z,20.20
2022-11-04T10:14:36.464Z,19.90
2022-11-04T10:17:08.057Z,19.27
2022-11-04T10:19:34.364Z,19.92
2022-11-04T10:22:08.814Z,20.35
2022-11-04T10:24:43.327Z,17.80
2022-11-04T10:27:32.989Z,23.88
2022-11-04T10:30:00.799Z,25.13
2022-11-04T10:32:30.067Z,20.80
2022-11-04T10:35:02.243Z,20.45
2022-11-04T10:37:28.806Z,17.92
2022-11-04T10:40:12.529Z,21.60
2022-11-04T10:42:38.867Z,16.25
2022-11-04T10:45:05.384Z,19.83
2022-11-04T10:47:52.310Z,22.77
2022-11-04T10:50:34.108Z,19.05
2022-11-04T10:53:10.573Z,17.73
2022-11-04T10:55:48.022Z,20.05
2022-11-04T10:58:19.859Z,18.73
2022-11-04T11:00:46.438Z,19.38
2022-11-04T11:03:24.021Z,20.08
2022-11-04T11:05:51.820Z,19.50
2022-11-04T11:08:27.602Z,20.55
2022-11-04T11:10:56.568Z,19.45
2022-11-04T11:13:27.812Z,19.20
2022-11-04T11:16:15.611Z,22.38
2022-11-04T11:18:42.208Z,24.77
2022-11-04T11:21:10.992Z,26.70
2022-11-04T11:23:39.327Z,26.75
2022-11-04T11:26:07.208Z,30.60
2022-11-04T11:28:40.488Z,25.27
2022-11-04T11:31:11.723Z,23.60
2022-11-04T11:33:40.527Z,23.95
2022-11-04T11:36:12.929Z,23.02
2022-11-04T11:38:50.485Z,23.85
2022-11-04T11:41:25.556Z,22.30
2022-11-04T11:43:53.422Z,22.20
2022-11-04T11:46:23.640Z,22.35
2022-11-04T11:48:51.285Z,23.02
2022-11-04T11:51:30.722Z,19.98
2022-11-04T11:54:10.691Z,17.50
2022-11-04T11:57:07.405Z,25.97
2022-11-04T12:02:35.772Z,18.50
2022-11-04T12:10:50.985Z,17.08
2022-11-04T12:13:27.229Z,15.98
2022-11-04T12:16:06.509Z,19.30
2022-11-04T12:18:51.674Z,18.95
2022-11-04T12:21:26.935Z,16.88
2022-11-04T12:23:55.599Z,13.68
2022-11-04T12:26:37.402Z,17.33
2022-11-04T12:29:27.615Z,15.13
2022-11-04T12:32:17.865Z,13.85
2022-11-04T12:34:50.159Z,12.48
2022-11-04T12:37:25.603Z,14.70
2022-11-04T12:39:51.913Z,12.52
2022-11-04T12:42:33.088Z,14.43
2022-11-04T12:45:10.399Z,13.02
2022-11-04T12:47:42.987Z,12.95
2022-11-04T12:50:27.454Z,13.43
2022-11-04T12:53:06.820Z,13.90
2022-11-04T12:55:51.841Z,13.60
2022-11-04T12:58:37.070Z,10.50
2022-11-04T13:01:10.956Z,14.07
2022-11-04T13:03:49.602Z,13.32
2022-11-04T13:06:36.550Z,13.68
2022-11-04T13:09:11.340Z,11.57
2022-11-04T13:11:58.386Z,12.50
2022-11-04T13:14:30.058Z,14.75
2022-11-04T13:17:00.137Z,12.05
2022-11-04T13:19:47.335Z,16.25
2022-11-04T13:22:15.971Z,13.00
2022-11-04T13:24:50.791Z,12.77
2022-11-04T13:27:23.025Z,12.50
2022-11-04T13:29:50.933Z,15.55
2022-11-04T13:32:28.014Z,13.27
2022-11-04T13:35:00.265Z,13.52
2022-11-04T13:37:33.314Z,18.85
2022-11-04T13:40:02.603Z,29.08
2022-11-04T13:42:52.165Z,18.65
2022-11-04T13:45:19.215Z,26.00
2022-11-04T13:47:57.495Z,21.13
2022-11-04T13:50:27.950Z,21.95
2022-11-04T13:52:54.464Z,21.27
2022-11-04T13:55:21.648Z,25.10
2022-11-04T13:57:50.924Z,19.38
2022-11-04T14:00:17.314Z,13.23
2022-11-04T14:02:47.715Z,19.50
2022-11-04T14:05:37.085Z,14.73
2022-11-04T14:10:45.188Z,14.15
2022-11-04T14:13:30.022Z,11.73
2022-11-04T14:15:59.448Z,9.52
2022-11-04T14:21:22.129Z,10.15
2022-11-04T14:23:56.474Z,16.17
2022-11-04T14:26:24.604Z,15.82
2022-11-04T14:29:01.204Z,17.35
2022-11-04T14:31:46.497Z,13.93
2022-11-04T14:34:33.500Z,11.90
2022-11-04T14:37:00.862Z,14.70
2022-11-04T14:39:32.504Z,12.52
2022-11-04T14:42:02.639Z,12.88
2022-11-04T14:44:29.226Z,10.60
2022-11-04T14:47:19.297Z,17.83
2022-11-04T14:49:45.691Z,15.50
2022-11-04T14:52:26.753Z,14.93
2022-11-04T14:54:58.161Z,14.35
2022-11-04T14:57:24.590Z,13.35
2022-11-04T14:59:52.368Z,9.75
2022-11-04T15:02:25.391Z,10.52
2022-11-04T15:04:55.477Z,8.93
2022-11-04T15:07:34.095Z,11.23
2022-11-04T15:10:02.133Z,10.63
2022-11-04T15:12:46.918Z,12.50
2022-11-04T15:15:33.399Z,13.50
2022-11-04T15:18:07.471Z,10.00
2022-11-04T15:20:36.523Z,16.13
2022-11-04T15:23:04.387Z,14.23
2022-11-04T15:25:30.958Z,12.50
2022-11-04T15:27:57.401Z,10.25
2022-11-04T15:30:25.483Z,19.90
2022-11-04T15:32:56.139Z,16.67
2022-11-04T15:35:22.948Z,13.90
2022-11-04T15:37:50.012Z,12.45
2022-11-04T15:40:17.042Z,13.05
2022-11-04T15:42:46.443Z,10.65
2022-11-04T15:47:39.264Z,9.15
2022-11-04T15:50:16.603Z,11.15
2022-11-04T15:52:50.042Z,11.43
2022-11-04T15:55:21.173Z,11.07
2022-11-04T15:57:47.650Z,10.35
2022-11-04T16:00:17.577Z,13.95
2022-11-04T16:02:59.988Z,10.63
2022-11-04T16:05:33.551Z,11.90
2022-11-04T16:08:20.216Z,11.60
2022-11-04T16:10:47.079Z,10.07
2022-11-04T16:13:16.279Z,9.57
2022-11-04T16:15:45.663Z,10.48
2022-11-04T16:20:38.289Z,9.68
2022-11-04T16:23:04.842Z,11.43
2022-11-04T16:25:35.228Z,9.57
2022-11-04T16:28:02.453Z,8.93
2022-11-04T16:30:29.018Z,10.00
2022-11-04T16:33:07.170Z,7.90
2022-11-04T16:35:33.783Z,10.05
2022-11-04T16:38:00.859Z,7.80
2022-11-04T16:40:27.372Z,7.45
2022-11-04T16:42:54.196Z,10.15
2022-11-04T16:45:25.270Z,8.85
2022-11-04T16:47:52.474Z,7.63
2022-11-04T16:50:19.048Z,8.52
2022-11-04T16:52:45.723Z,8.68
2022-11-04T16:55:12.968Z,9.57
2022-11-04T16:57:39.444Z,8.13
2022-11-04T17:00:06.653Z,12.73
2022-11-04T17:02:38.009Z,7.93
2022-11-04T17:05:05.381Z,6.53
2022-11-04T17:07:51.473Z,7.53
2022-11-04T17:10:23.142Z,6.45
2022-11-04T17:12:49.532Z,9.10
2022-11-04T17:15:16.253Z,7.85
2022-11-04T17:17:43.067Z,9.85
2022-11-04T17:20:19.189Z,5.95
2022-11-04T17:22:46.935Z,5.53
2022-11-04T17:25:15.977Z,7.68
2022-11-04T17:27:42.359Z,6.93
2022-11-04T17:30:09.032Z,6.15
2022-11-04T17:32:35.368Z,5.28
2022-11-04T17:35:01.745Z,4.40
2022-11-04T17:37:28.116Z,4.40
2022-11-04T17:39:54.449Z,7.88
2022-11-04T17:42:39.677Z,6.38
2022-11-04T17:45:06.367Z,11.38
2022-11-04T17:47:36.350Z,19.88
2022-11-04T17:50:03.396Z,17.77
2022-11-04T17:52:29.743Z,13.73
2022-11-04T17:54:56.053Z,12.40
2022-11-04T17:57:22.424Z,11.10
2022-11-04T17:59:48.859Z,7.45
2022-11-04T18:02:15.594Z,10.02
2022-11-04T18:04:44.519Z,6.07
2022-11-04T18:07:10.847Z,7.40
2022-11-04T18:09:39.144Z,5.75
2022-11-04T18:12:25.278Z,5.53
2022-11-04T18:14:51.649Z,4.82
2022-11-04T18:17:18.059Z,7.45
2022-11-04T18:19:44.455Z,3.15
2022-11-04T18:22:10.834Z,4.32
2022-11-04T18:24:37.245Z,5.78
2022-11-04T18:27:03.716Z,3.65
2022-11-04T18:29:30.049Z,5.80
2022-11-04T18:31:56.569Z,3.90
2022-11-04T18:34:22.979Z,5.78
2022-11-04T18:36:49.395Z,3.15
2022-11-04T18:39:16.681Z,8.18
2022-11-04T18:41:43.084Z,5.93
2022-11-04T18:44:19.451Z,8.57
2022-11-04T18:46:46.174Z,6.85
2022-11-04T18:49:13.239Z,7.00
2022-11-04T18:51:39.693Z,4.22
2022-11-04T18:54:06.980Z,8.07
2022-11-04T18:56:33.556Z,6.85
2022-11-04T18:59:00.383Z,5.72
2022-11-04T19:01:28.045Z,4.80
2022-11-04T19:03:54.739Z,8.55
2022-11-04T19:06:22.488Z,4.78
2022-11-04T19:08:50.588Z,6.95
2022-11-04T19:11:18.542Z,5.78
2022-11-04T19:13:49.530Z,5.55
2022-11-04T19:16:15.854Z,5.93
2022-11-04T19:18:42.176Z,7.72
2022-11-04T19:21:11.661Z,3.10
2022-11-04T19:26:08.866Z,9.27
2022-11-04T19:28:47.684Z,7.47
2022-11-04T19:31:15.840Z,7.50
2022-11-04T19:33:42.321Z,5.75
2022-11-04T19:36:09.340Z,5.75
2022-11-04T19:38:35.679Z,5.00
2022-11-04T19:41:04.369Z,6.95
2022-11-04T19:43:34.271Z,7.00
2022-11-04T19:46:04.670Z,9.23
2022-11-04T19:48:31.389Z,5.13
2022-11-04T19:50:57.824Z,5.47
2022-11-04T19:53:24.305Z,6.00
2022-11-04T19:55:51.675Z,6.05
2022-11-04T19:58:18.359Z,7.00
2022-11-04T20:00:45.064Z,5.40
2022-11-04T20:03:11.446Z,3.53
2022-11-04T20:05:38.956Z,5.07
2022-11-04T20:08:06.550Z,6.15
2022-11-04T20:10:35.232Z,5.75
2022-11-04T20:13:21.570Z,4.40
2022-11-04T20:15:48.081Z,5.60
2022-11-04T20:18:14.408Z,3.00
2022-11-04T20:20:40.840Z,5.63
2022-11-04T20:23:07.543Z,5.05
2022-11-04T20:25:33.860Z,4.65
2022-11-04T20:28:02.620Z,6.43
2022-11-04T20:30:29.313Z,3.25
2022-11-04T20:32:55.665Z,2.30
2022-11-04T20:35:22.082Z,2.72
2022-11-04T20:37:48.802Z,4.35
2022-11-04T20:40:15.271Z,3.33
2022-11-04T20:42:47.706Z,6.22
2022-11-04T20:45:19.174Z,7.90
2022-11-04T20:47:45.840Z,4.90
2022-11-04T20:50:12.318Z,6.85
2022-11-04T20:52:38.839Z,2.22
2022-11-04T20:55:06.082Z,6.18
2022-11-04T20:57:33.795Z,4.10
2022-11-04T21:00:00.174Z,6.10
2022-11-04T21:02:27.016Z,4.35
2022-11-04T21:04:53.642Z,4.07
2022-11-04T21:07:20.157Z,2.33
2022-11-04T21:09:46.591Z,6.35
2022-11-04T21:12:12.915Z,7.35
2022-11-04T21:14:39.276Z,6.03
2022-11-04T21:17:05.897Z,8.95
2022-11-04T21:19:32.287Z,7.93
2022-11-04T21:21:58.734Z,3.00
2022-11-04T21:24:25.095Z,5.68
2022-11-04T21:26:51.472Z,5.22
2022-11-04T21:29:21.026Z,3.92
2022-11-04T21:31:48.574Z,7.50
2022-11-04T21:34:15.133Z,5.22
2022-11-04T21:36:42.259Z,4.13
2022-11-04T21:39:11.163Z,3.88
2022-11-04T21:41:37.596Z,5.50
2022-11-04T21:44:06.034Z,4.20
2022-11-04T21:46:33.228Z,6.85
2022-11-04T21:49:00.842Z,10.00
2022-11-04T21:51:31.411Z,4.95
2022-11-04T21:53:58.541Z,5.95
2022-11-04T21:56:26.542Z,3.42
2022-11-04T21:58:53.051Z,5.95
2022-11-04T22:01:21.040Z,8.27
2022-11-04T22:03:51.715Z,6.75
2022-11-04T22:06:18.798Z,5.25
2022-11-04T22:08:49.056Z,4.25
2022-11-04T22:11:24.783Z,5.53
2022-11-04T22:13:55.083Z,4.05
2022-11-04T22:16:23.012Z,5.55
2022-11-04T22:18:53.725Z,4.68
2022-11-04T22:21:20.735Z,4.93
2022-11-04T22:23:47.371Z,5.93
2022-11-04T22:26:15.319Z,5.25
2022-11-04T22:28:41.808Z,4.70
2022-11-04T22:31:09.555Z,6.63
2022-11-04T22:33:36.040Z,7.60
2022-11-04T22:36:02.406Z,5.03
2022-11-04T22:38:28.731Z,4.25
2022-11-04T22:40:57.166Z,6.32
2022-11-04T22:43:24.877Z,2.58
2022-11-04T22:45:52.156Z,4.07
2022-11-04T22:48:18.899Z,9.52
2022-11-04T22:50:45.833Z,5.90
2022-11-04T22:53:14.856Z,5.07
2022-11-04T22:55:43.890Z,4.30
2022-11-04T22:58:10.227Z,4.25
2022-11-04T23:00:36.605Z,5.43
2022-11-04T23:03:03.227Z,7.13
2022-11-04T23:05:31.194Z,5.95
2022-11-04T23:07:59.296Z,3.03
2022-11-04T23:10:47.970Z,7.60
2022-11-04T23:13:33.326Z,4.10
2022-11-04T23:16:18.308Z,5.97
2022-11-04T23:18:51.728Z,4.03
2022-11-04T23:21:38.005Z,5.68
2022-11-04T23:24:23.337Z,4.70
2022-11-04T23:26:50.069Z,4.72
2022-11-04T23:29:35.461Z,7.28
2022-11-04T23:32:02.278Z,8.73
2022-11-04T23:34:47.193Z,5.95
2022-11-04T23:37:13.881Z,6.70
2022-11-04T23:39:46.220Z,4.00
2022-11-04T23:42:17.262Z,6.35
2022-11-04T23:45:02.422Z,5.95
2022-11-04T23:47:47.227Z,4.63
2022-11-04T23:50:32.194Z,6.60
2022-11-04T23:53:18.060Z,5.57
2022-11-04T23:56:02.745Z,5.57
2022-11-04T23:58:47.576Z,4.75
